Time;durP1;ratioP1;P1;durP2;ratioP2;P2;SDS_P1;SDS_P2;PMS_P1;PMS_P2;Temp;Humidity;BMP_temperature;BMP_pressure;BME280_temperature;BME280_humidity;BME280_pressure;Samples;Min_cycle;Max_cycle;Signal;HPM_P1;HPM_P2
2021/01/17 00:00:23;;;;;;;29.50;20.43;;;0.90;99.90;;;;;;4996215;28;20516;-48
2021/01/17 00:02:51;;;;;;;27.63;18.53;;;0.80;99.90;;;;;;4993780;28;20485;-48
2021/01/17 00:05:21;;;;;;;28.30;19.60;;;0.70;99.90;;;;;;4994972;28;20566;-48
2021/01/17 00:07:50;;;;;;;29.73;21.07;;;0.80;99.90;;;;;;4994877;28;20880;-48
2021/01/17 00:10:22;;;;;;;29.53;20.07;;;0.80;99.90;;;;;;4994285;28;20591;-48
2021/01/17 00:12:51;;;;;;;28.60;19.60;;;0.70;99.90;;;;;;4993920;28;20575;-48
2021/01/17 00:15:18;;;;;;;28.73;19.30;;;0.70;99.90;;;;;;5004000;28;21163;-48
2021/01/17 00:17:46;;;;;;;31.27;20.70;;;0.70;99.90;;;;;;4998376;28;21009;-48
2021/01/17 00:20:16;;;;;;;29.93;20.53;;;0.60;99.90;;;;;;5005037;28;20481;-48
2021/01/17 00:22:44;;;;;;;32.03;22.20;;;0.70;99.90;;;;;;5005064;28;21010;-48
2021/01/17 00:25:16;;;;;;;34.97;23.23;;;0.70;99.90;;;;;;5007705;28;20484;-48
2021/01/17 00:27:44;;;;;;;33.13;22.60;;;0.70;99.90;;;;;;5007875;28;20464;-48
2021/01/17 00:30:14;;;;;;;35.53;22.37;;;0.60;99.90;;;;;;5008246;28;20680;-48
2021/01/17 00:32:41;;;;;;;30.30;21.50;;;0.60;99.90;;;;;;5005766;28;20555;-48
2021/01/17 00:35:09;;;;;;;31.40;20.33;;;0.60;99.90;;;;;;4988397;28;21032;-48
2021/01/17 00:37:37;;;;;;;31.37;21.17;;;0.60;99.90;;;;;;5004419;28;20849;-48
2021/01/17 00:40:05;;;;;;;33.10;21.30;;;0.60;99.90;;;;;;5010187;28;20497;-48
2021/01/17 00:42:36;;;;;;;32.97;20.43;;;0.60;99.90;;;;;;5006282;28;20673;-48
2021/01/17 00:45:06;;;;;;;33.27;21.87;;;0.70;99.90;;;;;;5007961;28;21038;-48
2021/01/17 00:47:33;;;;;;;34.33;22.07;;;0.70;99.90;;;;;;5009729;28;20873;-48
2021/01/17 00:50:01;;;;;;;35.07;23.17;;;0.60;99.90;;;;;;5009504;28;20772;-48
2021/01/17 00:52:28;;;;;;;31.53;20.30;;;0.60;99.90;;;;;;5022894;28;20475;-48
2021/01/17 00:54:55;;;;;;;30.80;20.77;;;0.60;99.90;;;;;;5008617;28;20891;-48
2021/01/17 00:57:27;;;;;;;29.77;18.57;;;0.60;99.90;;;;;;5009166;28;20484;-48
2021/01/17 00:59:55;;;;;;;33.97;20.13;;;0.70;99.90;;;;;;5007844;28;20551;-48
2021/01/17 01:02:23;;;;;;;39.70;24.77;;;0.90;99.90;;;;;;5008653;28;20483;-48
2021/01/17 01:04:51;;;;;;;36.40;23.00;;;0.80;99.90;;;;;;4999028;28;20480;-48
2021/01/17 01:07:18;;;;;;;32.77;21.30;;;0.70;99.90;;;;;;5006345;28;20562;-48
2021/01/17 01:09:46;;;;;;;28.27;19.90;;;0.70;99.90;;;;;;5023525;28;20472;-48
2021/01/17 01:12:14;;;;;;;30.63;20.20;;;0.60;99.90;;;;;;5028093;28;20486;-48
2021/01/17 01:14:41;;;;;;;31.97;20.23;;;0.60;99.90;;;;;;4994195;28;21048;-48
2021/01/17 01:17:10;;;;;;;29.13;20.80;;;0.60;99.90;;;;;;4989038;28;20477;-48
2021/01/17 01:19:37;;;;;;;30.07;21.23;;;0.60;99.90;;;;;;5025515;28;20784;-48
2021/01/17 01:22:04;;;;;;;31.37;20.77;;;0.60;99.90;;;;;;5028043;28;20476;-48
2021/01/17 01:24:32;;;;;;;29.43;19.47;;;0.50;99.90;;;;;;4997032;28;20497;-48
2021/01/17 01:27:00;;;;;;;29.17;20.93;;;0.60;99.90;;;;;;4988903;28;20568;-48
2021/01/17 01:29:27;;;;;;;29.83;20.63;;;0.90;99.90;;;;;;4989146;28;20569;-48
2021/01/17 01:31:55;;;;;;;26.00;19.07;;;0.80;99.90;;;;;;4988236;28;20484;-49
2021/01/17 01:34:24;;;;;;;34.63;22.80;;;0.70;99.90;;;;;;5002480;28;20476;-48
2021/01/17 01:36:51;;;;;;;30.80;20.90;;;0.70;99.90;;;;;;5008562;28;20575;-48
2021/01/17 01:39:18;;;;;;;34.03;22.17;;;0.70;99.90;;;;;;5010816;28;20928;-48
2021/01/17 01:41:46;;;;;;;29.93;20.60;;;0.70;99.90;;;;;;4993634;28;20496;-49
2021/01/17 01:44:13;;;;;;;28.70;20.23;;;0.60;99.90;;;;;;5007920;28;20559;-48
2021/01/17 01:46:42;;;;;;;29.00;20.33;;;0.70;99.90;;;;;;5007015;28;21008;-49
2021/01/17 01:49:10;;;;;;;30.43;19.93;;;0.70;99.90;;;;;;5007721;28;21126;-48
2021/01/17 01:51:39;;;;;;;33.90;21.17;;;1.00;99.90;;;;;;5003915;28;20876;-48
2021/01/17 01:54:09;;;;;;;37.87;24.80;;;1.30;99.90;;;;;;5005875;28;20511;-48
2021/01/17 01:56:37;;;;;;;35.27;24.90;;;1.00;99.90;;;;;;5007535;28;20468;-48
2021/01/17 01:59:04;;;;;;;32.57;21.90;;;1.10;99.90;;;;;;5006800;28;20552;-48
2021/01/17 02:01:33;;;;;;;32.43;20.70;;;0.90;99.90;;;;;;5005204;28;20900;-48
2021/01/17 02:04:04;;;;;;;31.63;21.30;;;0.80;99.90;;;;;;5006265;28;20508;-48
2021/01/17 02:06:31;;;;;;;28.23;20.03;;;0.80;99.90;;;;;;5002596;28;20562;-48
2021/01/17 02:09:22;;;;;;;30.23;21.20;;;0.70;99.90;;;;;;5022438;28;20999;-48
2021/01/17 02:12:07;;;;;;;30.20;21.17;;;0.60;99.90;;;;;;4998353;28;20501;-48
2021/01/17 02:14:47;;;;;;;29.40;20.87;;;0.60;99.90;;;;;;4984993;28;20481;-48
2021/01/17 02:17:19;;;;;;;30.30;20.60;;;0.60;99.90;;;;;;4985159;28;20567;-48
2021/01/17 02:20:15;;;;;;;28.60;20.30;;;0.60;99.90;;;;;;4986456;28;20481;-48
2021/01/17 02:22:52;;;;;;;30.33;20.27;;;0.60;99.90;;;;;;4997694;28;20570;-48
2021/01/17 02:25:21;;;;;;;29.07;21.20;;;0.60;99.90;;;;;;5005395;28;20547;-48
2021/01/17 02:27:56;;;;;;;32.33;21.53;;;0.60;99.90;;;;;;5007708;28;20482;-48
2021/01/17 02:30:25;;;;;;;30.53;20.73;;;0.60;99.90;;;;;;5000297;28;20485;-48
2021/01/17 02:32:57;;;;;;;31.87;20.80;;;0.60;99.90;;;;;;4987658;28;20567;-48
2021/01/17 02:35:25;;;;;;;31.50;20.60;;;0.60;99.90;;;;;;4992108;28;20480;-48
2021/01/17 02:38:10;;;;;;;29.70;20.60;;;0.60;99.90;;;;;;4992066;28;20500;-48
2021/01/17 02:41:00;;;;;;;32.00;22.03;;;0.60;99.90;;;;;;5007062;28;20483;-48
2021/01/17 02:43:28;;;;;;;31.10;21.63;;;0.60;99.90;;;;;;5010866;28;20889;-48
2021/01/17 02:45:55;;;;;;;31.57;21.37;;;0.60;99.90;;;;;;5011625;28;21035;-48
2021/01/17 02:48:22;;;;;;;31.67;21.07;;;0.60;99.90;;;;;;5013877;28;20488;-48
2021/01/17 02:50:50;;;;;;;28.33;21.30;;;0.60;99.90;;;;;;5010564;28;20492;-48
2021/01/17 02:53:26;;;;;;;29.30;20.93;;;0.60;99.90;;;;;;5010588;28;20545;-48
2021/01/17 02:55:56;;;;;;;30.67;19.63;;;0.60;99.90;;;;;;5011434;28;20547;-48
2021/01/17 02:58:25;;;;;;;31.30;21.43;;;0.60;99.90;;;;;;5010361;28;20874;-48
2021/01/17 03:00:57;;;;;;;33.70;22.97;;;0.60;99.90;;;;;;5009562;28;20488;-48
2021/01/17 03:03:31;;;;;;;38.30;25.20;;;0.60;99.90;;;;;;5015944;28;20510;-48
2021/01/17 03:06:00;;;;;;;35.13;22.63;;;0.60;99.90;;;;;;5030629;28;20487;-48
2021/01/17 03:08:28;;;;;;;32.30;22.43;;;0.60;99.90;;;;;;5030865;28;20486;-48
2021/01/17 03:10:57;;;;;;;32.53;21.97;;;0.60;99.90;;;;;;5014920;28;20484;-48
2021/01/17 03:13:24;;;;;;;31.33;21.23;;;0.60;99.90;;;;;;4990931;28;20481;-48
2021/01/17 03:15:52;;;;;;;30.80;20.60;;;0.60;99.90;;;;;;4991500;28;20563;-48
2021/01/17 03:18:19;;;;;;;30.43;21.20;;;0.60;99.90;;;;;;5008863;28;20571;-48
2021/01/17 03:20:47;;;;;;;29.27;19.93;;;0.60;99.90;;;;;;5010114;28;20506;-48
2021/01/17 03:23:14;;;;;;;27.97;19.27;;;0.60;99.90;;;;;;5010155;28;20484;-48
2021/01/17 03:25:41;;;;;;;28.03;19.93;;;0.60;99.90;;;;;;5010610;28;20563;-49
2021/01/17 03:28:09;;;;;;;28.40;20.13;;;0.60;99.90;;;;;;5010711;28;20487;-48
2021/01/17 03:30:37;;;;;;;29.73;20.83;;;0.60;99.90;;;;;;5006004;28;20481;-48
2021/01/17 03:33:04;;;;;;;30.77;20.57;;;0.60;99.90;;;;;;4990539;28;20568;-48
2021/01/17 03:35:32;;;;;;;28.23;20.30;;;0.60;99.90;;;;;;5012921;28;20476;-48
2021/01/17 03:37:59;;;;;;;28.13;20.13;;;0.60;99.90;;;;;;5010544;28;20579;-48
2021/01/17 03:40:27;;;;;;;31.73;20.37;;;0.60;99.90;;;;;;5009842;28;20502;-48
2021/01/17 03:42:54;;;;;;;31.73;20.60;;;0.60;99.90;;;;;;5010007;28;20476;-48
2021/01/17 03:45:22;;;;;;;29.73;20.13;;;0.50;99.90;;;;;;5008715;28;20531;-48
2021/01/17 03:47:50;;;;;;;32.10;20.33;;;0.60;99.90;;;;;;5010290;28;20504;-48
2021/01/17 03:50:18;;;;;;;30.77;20.40;;;0.50;99.90;;;;;;5008713;28;20484;-48
2021/01/17 03:52:45;;;;;;;27.77;19.63;;;0.50;99.90;;;;;;4990024;28;20540;-48
2021/01/17 03:55:13;;;;;;;30.53;19.97;;;0.50;99.90;;;;;;4993023;28;20526;-48
2021/01/17 03:57:40;;;;;;;30.80;20.50;;;0.50;99.90;;;;;;5015952;28;20614;-48
2021/01/17 04:00:09;;;;;;;26.70;18.77;;;0.50;99.90;;;;;;5010318;28;20476;-48
2021/01/17 04:02:40;;;;;;;28.50;20.13;;;0.50;99.90;;;;;;5022386;28;20483;-48
2021/01/17 04:05:09;;;;;;;28.30;19.60;;;0.50;99.90;;;;;;5030306;28;20493;-48
2021/01/17 04:07:37;;;;;;;28.40;18.93;;;0.50;99.90;;;;;;5029770;28;20566;-48
2021/01/17 04:10:05;;;;;;;29.03;20.27;;;0.50;99.90;;;;;;5029731;28;20514;-49
2021/01/17 04:12:33;;;;;;;28.67;19.73;;;0.50;99.90;;;;;;4990085;28;20505;-48
2021/01/17 04:15:00;;;;;;;28.83;20.33;;;0.50;99.90;;;;;;4990208;28;20473;-48
2021/01/17 04:17:27;;;;;;;29.00;20.10;;;0.50;99.90;;;;;;4990193;28;20993;-48
2021/01/17 04:19:56;;;;;;;29.20;19.40;;;0.50;99.90;;;;;;5000506;28;20476;-48
2021/01/17 04:22:23;;;;;;;29.37;20.33;;;0.40;99.90;;;;;;5009199;28;20903;-48
2021/01/17 04:24:50;;;;;;;29.27;19.73;;;0.40;99.90;;;;;;5008105;28;20554;-48
2021/01/17 04:27:17;;;;;;;26.90;19.37;;;0.50;99.90;;;;;;5015788;28;20539;-48
2021/01/17 04:29:45;;;;;;;25.97;18.63;;;0.40;99.90;;;;;;4990350;28;20541;-48
2021/01/17 04:32:12;;;;;;;27.07;18.53;;;0.40;99.90;;;;;;4989753;28;20488;-48
2021/01/17 04:34:40;;;;;;;26.63;18.67;;;0.50;99.90;;;;;;4993649;28;20547;-48
2021/01/17 04:37:08;;;;;;;27.80;18.20;;;0.40;99.90;;;;;;4990437;28;20477;-48
2021/01/17 04:39:35;;;;;;;26.93;19.37;;;0.40;99.90;;;;;;4990053;28;20563;-48
2021/01/17 04:42:08;;;;;;;29.00;19.37;;;0.50;99.90;;;;;;4989886;28;20503;-48
2021/01/17 04:44:36;;;;;;;26.93;18.53;;;0.50;99.90;;;;;;5009670;28;20468;-48
2021/01/17 04:47:05;;;;;;;26.13;19.00;;;0.40;99.90;;;;;;5009436;28;20579;-48
2021/01/17 04:49:38;;;;;;;27.57;19.30;;;0.40;99.90;;;;;;5012132;28;20506;-48
2021/01/17 04:52:12;;;;;;;27.67;18.83;;;0.40;99.90;;;;;;5007856;28;20480;-48
2021/01/17 04:54:39;;;;;;;28.37;19.47;;;0.40;99.90;;;;;;5012618;28;21081;-48
2021/01/17 04:57:12;;;;;;;30.23;19.30;;;0.40;99.90;;;;;;5005364;28;20492;-48
2021/01/17 04:59:46;;;;;;;28.53;19.17;;;0.40;99.90;;;;;;5019218;28;20566;-48
2021/01/17 05:02:32;;;;;;;26.40;18.90;;;0.40;99.90;;;;;;5017324;28;20492;-48
2021/01/17 05:05:14;;;;;;;28.50;17.87;;;0.40;99.90;;;;;;4989504;28;20532;-48
2021/01/17 05:07:51;;;;;;;28.23;18.93;;;0.40;99.90;;;;;;4988861;28;20503;-48
2021/01/17 05:10:37;;;;;;;26.07;18.30;;;0.50;99.90;;;;;;5002967;28;20555;-49
2021/01/17 05:13:16;;;;;;;27.27;18.37;;;0.50;99.90;;;;;;5001419;28;20528;-48
2021/01/17 05:15:44;;;;;;;27.53;18.93;;;0.50;99.90;;;;;;4988936;28;20518;-48
2021/01/17 05:18:12;;;;;;;25.87;18.13;;;0.50;99.90;;;;;;4988997;28;20481;-48
2021/01/17 05:20:40;;;;;;;26.20;18.33;;;0.50;99.90;;;;;;4988631;28;20539;-48
2021/01/17 05:23:11;;;;;;;28.83;19.90;;;0.50;99.90;;;;;;4995012;28;20488;-48
2021/01/17 05:25:42;;;;;;;27.30;18.13;;;0.40;99.90;;;;;;5011062;28;20484;-48
2021/01/17 05:28:10;;;;;;;28.67;19.00;;;0.40;99.90;;;;;;5010579;28;20507;-48
2021/01/17 05:30:38;;;;;;;26.73;19.23;;;0.40;99.90;;;;;;4989239;28;20481;-49
2021/01/17 05:33:07;;;;;;;28.67;19.60;;;0.50;99.90;;;;;;4988732;28;20538;-48
2021/01/17 05:35:35;;;;;;;25.83;17.97;;;0.50;99.90;;;;;;4988536;28;20473;-48
2021/01/17 05:38:02;;;;;;;29.20;18.50;;;0.50;99.90;;;;;;4988278;28;20537;-49
2021/01/17 05:40:34;;;;;;;29.90;20.23;;;0.60;99.90;;;;;;4988237;28;20488;-48
2021/01/17 05:43:02;;;;;;;27.77;18.93;;;0.60;99.90;;;;;;4993529;28;20480;-48
2021/01/17 05:45:29;;;;;;;28.53;19.60;;;0.50;99.90;;;;;;5007768;28;20495;-48
2021/01/17 05:47:59;;;;;;;25.50;18.17;;;0.60;99.90;;;;;;5007895;28;20476;-48
2021/01/17 05:50:29;;;;;;;27.10;18.33;;;0.50;99.90;;;;;;5006781;28;20534;-49
2021/01/17 05:52:58;;;;;;;27.20;17.87;;;0.50;99.90;;;;;;5009348;28;21321;-48
2021/01/17 05:55:31;;;;;;;25.70;18.60;;;0.50;99.90;;;;;;5006536;28;20477;-48
2021/01/17 05:58:23;;;;;;;25.97;17.67;;;0.50;99.90;;;;;;5008115;28;20490;-49
2021/01/17 06:00:52;;;;;;;29.03;19.80;;;0.70;99.90;;;;;;5027279;28;20542;-48
2021/01/17 06:03:23;;;;;;;28.00;19.83;;;0.70;99.90;;;;;;5011765;28;20548;-48
2021/01/17 06:05:51;;;;;;;30.20;18.83;;;0.60;99.90;;;;;;4988321;28;20888;-48
2021/01/17 06:08:20;;;;;;;27.93;18.77;;;0.60;99.90;;;;;;4987563;28;20513;-48
2021/01/17 06:10:48;;;;;;;27.83;18.47;;;0.60;99.90;;;;;;4988371;28;20552;-48
2021/01/17 06:13:24;;;;;;;25.87;18.47;;;0.50;99.90;;;;;;4994051;28;20519;-48
2021/01/17 06:15:53;;;;;;;26.53;19.07;;;0.60;99.90;;;;;;5008111;28;20927;-48
2021/01/17 06:18:22;;;;;;;26.47;17.80;;;0.60;99.90;;;;;;5007829;28;20534;-48
2021/01/17 06:20:57;;;;;;;25.57;17.97;;;0.50;99.90;;;;;;5007674;28;20480;-48
2021/01/17 06:23:26;;;;;;;25.03;17.60;;;0.50;99.90;;;;;;5007269;28;20550;-47
2021/01/17 06:26:05;;;;;;;27.60;18.10;;;0.50;99.90;;;;;;5007910;28;20492;-48
2021/01/17 06:28:41;;;;;;;24.50;17.60;;;0.50;99.90;;;;;;5007848;28;20508;-48
2021/01/17 06:31:10;;;;;;;25.37;18.13;;;0.50;99.90;;;;;;5007768;28;20888;-48
2021/01/17 06:33:39;;;;;;;23.33;17.30;;;0.50;99.90;;;;;;4997595;28;20869;-49
2021/01/17 06:36:15;;;;;;;25.83;18.13;;;0.40;99.90;;;;;;5005304;28;20832;-48
2021/01/17 06:38:45;;;;;;;26.90;17.90;;;0.40;99.90;;;;;;5027098;28;20484;-48
2021/01/17 06:41:13;;;;;;;24.13;17.30;;;0.40;99.90;;;;;;5027416;28;21064;-48
2021/01/17 06:43:44;;;;;;;25.97;18.57;;;0.40;99.90;;;;;;5007230;28;20508;-48
2021/01/17 06:46:13;;;;;;;26.00;17.60;;;0.40;99.90;;;;;;4987726;28;20485;-48
2021/01/17 06:48:40;;;;;;;25.47;18.53;;;0.40;99.90;;;;;;5000351;28;20840;-48
2021/01/17 06:51:20;;;;;;;24.67;17.77;;;0.40;99.90;;;;;;5008752;28;20480;-48
2021/01/17 06:53:54;;;;;;;27.17;17.93;;;0.40;99.90;;;;;;5006757;28;20533;-48
2021/01/17 06:56:22;;;;;;;25.93;17.90;;;0.40;99.90;;;;;;5014164;28;20482;-48
2021/01/17 06:58:52;;;;;;;27.93;20.10;;;0.40;99.90;;;;;;5026939;28;20494;-48
2021/01/17 07:01:28;;;;;;;26.40;20.30;;;0.40;99.90;;;;;;5019896;28;20524;-48
2021/01/17 07:04:17;;;;;;;27.77;20.13;;;0.40;99.90;;;;;;4987633;28;20556;-48
2021/01/17 07:07:23;;;;;;;27.77;19.67;;;0.40;99.90;;;;;;4987673;28;20562;-48
2021/01/17 07:09:59;;;;;;;28.77;18.97;;;0.40;99.90;;;;;;4987702;28;20539;-48
2021/01/17 07:12:41;;;;;;;24.67;16.97;;;0.40;99.90;;;;;;4998331;28;21139;-49
2021/01/17 07:15:13;;;;;;;27.47;18.37;;;0.40;99.90;;;;;;5005597;28;20484;-48
2021/01/17 07:17:42;;;;;;;24.67;17.87;;;0.40;99.90;;;;;;5005739;28;20484;-48
2021/01/17 07:20:12;;;;;;;24.40;16.97;;;0.40;99.90;;;;;;5009915;28;21149;-48
2021/01/17 07:22:42;;;;;;;26.50;18.50;;;0.40;99.90;;;;;;5008883;28;20476;-48
2021/01/17 07:25:12;;;;;;;26.80;18.03;;;0.40;99.90;;;;;;5009339;28;21071;-49
2021/01/17 07:28:04;;;;;;;26.50;19.27;;;0.40;99.90;;;;;;5009345;28;20487;-48
2021/01/17 07:30:44;;;;;;;25.07;17.63;;;0.40;99.90;;;;;;5009961;28;20518;-48
2021/01/17 07:33:14;;;;;;;24.40;17.37;;;0.40;99.90;;;;;;5008643;28;20472;-48
2021/01/17 07:35:43;;;;;;;27.53;18.33;;;0.50;99.90;;;;;;5009178;28;20510;-48
2021/01/17 07:38:17;;;;;;;25.57;17.40;;;0.50;99.90;;;;;;5009102;28;21053;-49
2021/01/17 07:40:50;;;;;;;22.80;15.93;;;0.50;99.90;;;;;;4997933;28;20481;-48
2021/01/17 07:43:25;;;;;;;22.97;16.47;;;0.50;99.90;;;;;;4989251;28;20485;-48
2021/01/17 07:45:55;;;;;;;23.57;16.33;;;0.50;99.90;;;;;;4992238;28;21026;-48
2021/01/17 07:48:23;;;;;;;23.53;16.43;;;0.50;99.90;;;;;;5008067;28;20575;-48
2021/01/17 07:50:53;;;;;;;24.53;16.37;;;0.40;99.90;;;;;;5010532;28;20499;-48
2021/01/17 07:53:51;;;;;;;27.43;16.20;;;0.50;99.90;;;;;;5019615;28;20483;-48
2021/01/17 07:56:27;;;;;;;24.27;16.83;;;0.50;99.90;;;;;;5028612;28;20899;-48
2021/01/17 07:58:59;;;;;;;22.37;15.70;;;0.50;99.90;;;;;;5028691;28;20489;-48
2021/01/17 08:01:47;;;;;;;23.87;16.67;;;0.50;99.90;;;;;;4995738;28;20930;-48
2021/01/17 08:04:31;;;;;;;23.77;16.03;;;0.50;99.90;;;;;;4989654;28;20564;-48
2021/01/17 08:07:01;;;;;;;22.37;16.10;;;0.40;99.90;;;;;;4990182;28;20476;-48
2021/01/17 08:09:45;;;;;;;25.37;16.83;;;0.40;99.90;;;;;;4989651;28;20489;-48
2021/01/17 08:12:39;;;;;;;22.47;16.30;;;0.40;99.90;;;;;;5008937;28;20495;-48
2021/01/17 08:15:28;;;;;;;23.27;15.90;;;0.40;99.90;;;;;;5010015;28;20488;-48
2021/01/17 08:17:57;;;;;;;24.97;16.30;;;0.50;99.90;;;;;;5009804;28;20626;-48
2021/01/17 08:20:32;;;;;;;24.30;16.90;;;0.50;99.90;;;;;;5001737;28;20489;-48
2021/01/17 08:23:10;;;;;;;22.87;16.30;;;0.50;99.90;;;;;;4989611;28;20575;-48
2021/01/17 08:26:03;;;;;;;23.27;16.10;;;0.50;99.90;;;;;;4990406;28;20868;-48
2021/01/17 08:28:41;;;;;;;23.03;15.87;;;0.50;99.90;;;;;;4989700;28;20900;-48
2021/01/17 08:31:43;;;;;;;27.47;18.63;;;0.50;99.90;;;;;;5001882;28;20506;-48
2021/01/17 08:34:24;;;;;;;22.70;16.20;;;0.50;99.90;;;;;;5008777;28;20488;-48
2021/01/17 08:36:53;;;;;;;23.67;16.03;;;0.50;99.90;;;;;;5008993;28;21011;-48
2021/01/17 08:39:44;;;;;;;21.87;15.87;;;0.50;99.90;;;;;;5009389;28;20491;-48
2021/01/17 08:42:31;;;;;;;23.07;16.23;;;0.60;99.90;;;;;;5008961;28;20507;-48
2021/01/17 08:45:00;;;;;;;22.53;15.70;;;0.60;99.90;;;;;;5007457;28;20484;-48
2021/01/17 08:47:28;;;;;;;20.57;15.10;;;0.60;99.90;;;;;;5008566;28;20487;-48
2021/01/17 08:49:58;;;;;;;22.00;15.80;;;0.60;99.90;;;;;;5012781;28;20486;-48
2021/01/17 08:52:26;;;;;;;19.20;13.90;;;0.60;99.90;;;;;;5027051;28;20546;-49
2021/01/17 08:54:55;;;;;;;19.87;13.57;;;0.60;99.90;;;;;;5027419;28;20486;-48
2021/01/17 08:57:40;;;;;;;23.77;15.83;;;0.70;99.90;;;;;;5027392;28;20840;-48
2021/01/17 09:00:10;;;;;;;22.10;14.77;;;0.70;99.90;;;;;;5010506;28;20662;-48
2021/01/17 09:02:38;;;;;;;20.17;13.60;;;0.70;99.90;;;;;;5004287;28;20481;-48
2021/01/17 09:05:18;;;;;;;19.57;14.13;;;0.70;99.90;;;;;;4998757;28;20489;-49
2021/01/17 09:07:46;;;;;;;20.53;13.57;;;0.70;99.90;;;;;;4996351;28;20558;-48
2021/01/17 09:10:16;;;;;;;19.70;13.80;;;0.70;99.90;;;;;;5004080;28;20566;-48
2021/01/17 09:12:44;;;;;;;21.60;15.10;;;0.70;99.90;;;;;;5006602;28;20471;-48
2021/01/17 09:15:18;;;;;;;21.53;14.73;;;0.70;99.90;;;;;;5006767;28;20483;-48
2021/01/17 09:17:59;;;;;;;22.03;15.73;;;0.70;99.90;;;;;;5005665;28;21007;-48
2021/01/17 09:20:28;;;;;;;23.57;15.87;;;0.70;99.90;;;;;;5009582;28;20928;-48
2021/01/17 09:22:58;;;;;;;18.27;14.13;;;0.80;99.90;;;;;;5000313;28;20489;-48
2021/01/17 09:25:27;;;;;;;19.23;13.67;;;0.70;99.90;;;;;;5003987;28;20472;-48
2021/01/17 09:27:57;;;;;;;19.00;13.43;;;0.80;99.90;;;;;;5002618;28;20483;-48
2021/01/17 09:30:26;;;;;;;18.00;13.23;;;0.80;99.90;;;;;;5004202;28;21071;-49
2021/01/17 09:32:53;;;;;;;17.70;13.93;;;0.80;99.90;;;;;;5005879;28;20560;-48
2021/01/17 09:35:22;;;;;;;21.20;13.73;;;0.80;99.90;;;;;;5005899;28;20514;-48
2021/01/17 09:37:59;;;;;;;20.07;13.90;;;0.80;99.90;;;;;;5001701;28;20484;-49
2021/01/17 09:40:26;;;;;;;20.33;13.50;;;0.80;99.90;;;;;;4998633;28;20487;-48
2021/01/17 09:42:54;;;;;;;20.87;14.00;;;0.90;99.90;;;;;;5005575;28;20484;-48
2021/01/17 09:45:21;;;;;;;17.63;13.60;;;0.90;99.90;;;;;;5002341;28;21037;-48
2021/01/17 09:47:51;;;;;;;19.03;12.90;;;1.10;99.90;;;;;;5008653;28;20487;-48
2021/01/17 09:50:19;;;;;;;18.20;13.30;;;1.10;99.90;;;;;;5005771;28;20945;-48
2021/01/17 09:52:46;;;;;;;25.10;15.73;;;1.10;99.90;;;;;;5004793;28;20579;-48
2021/01/17 09:55:14;;;;;;;24.27;17.97;;;1.00;99.90;;;;;;5005242;28;20515;-48
2021/01/17 09:57:42;;;;;;;20.70;15.17;;;1.00;99.90;;;;;;4996505;28;20480;-48
2021/01/17 10:00:16;;;;;;;21.67;14.37;;;0.90;99.90;;;;;;4994539;28;20871;-48
2021/01/17 10:02:45;;;;;;;19.70;14.53;;;1.00;99.90;;;;;;4993624;28;20480;-48
2021/01/17 10:05:13;;;;;;;21.20;15.63;;;1.00;99.90;;;;;;4994662;28;21096;-48
2021/01/17 10:07:40;;;;;;;21.23;15.10;;;1.00;99.90;;;;;;4996978;28;20530;-48
2021/01/17 10:10:10;;;;;;;21.57;15.23;;;1.00;99.90;;;;;;4996830;28;20550;-48
2021/01/17 10:12:38;;;;;;;19.97;14.40;;;1.00;99.90;;;;;;4998151;28;20547;-48
2021/01/17 10:15:17;;;;;;;19.50;14.47;;;1.00;99.90;;;;;;5004066;28;20818;-48
2021/01/17 10:17:46;;;;;;;18.83;13.97;;;1.00;99.90;;;;;;5005156;28;20555;-48
2021/01/17 10:20:22;;;;;;;20.57;14.60;;;1.10;99.90;;;;;;5005644;28;20526;-48
2021/01/17 10:22:57;;;;;;;19.47;13.43;;;1.10;99.90;;;;;;5014718;28;20965;-48
2021/01/17 10:25:25;;;;;;;20.83;15.30;;;1.10;99.90;;;;;;5007246;28;20565;-48
2021/01/17 10:27:59;;;;;;;22.67;16.87;;;1.10;99.90;;;;;;5007135;28;20987;-48
2021/01/17 10:30:29;;;;;;;25.77;18.90;;;1.20;99.90;;;;;;5007680;28;20983;-48
2021/01/17 10:33:03;;;;;;;22.77;16.30;;;1.30;99.90;;;;;;5006429;28;20472;-48
2021/01/17 10:35:36;;;;;;;21.77;16.07;;;1.30;99.90;;;;;;5007350;28;20475;-48
2021/01/17 10:38:04;;;;;;;21.70;16.00;;;1.40;99.90;;;;;;5009046;28;20879;-48
2021/01/17 10:40:34;;;;;;;21.87;15.90;;;1.40;99.90;;;;;;5016983;28;20534;-48
2021/01/17 10:43:06;;;;;;;23.77;14.83;;;1.40;99.90;;;;;;5004691;28;20536;-48
2021/01/17 10:45:35;;;;;;;19.70;13.87;;;1.40;99.90;;;;;;5022529;28;20483;-48
2021/01/17 10:48:10;;;;;;;19.23;14.87;;;1.40;99.90;;;;;;5009589;28;20470;-48
2021/01/17 10:50:50;;;;;;;20.63;14.50;;;1.40;99.90;;;;;;4989986;28;20845;-48
2021/01/17 10:53:22;;;;;;;20.57;14.40;;;1.50;99.90;;;;;;4997431;28;20511;-48
2021/01/17 10:55:52;;;;;;;21.03;15.27;;;1.50;99.90;;;;;;5014331;28;20520;-48
2021/01/17 10:58:26;;;;;;;20.43;14.53;;;1.60;99.90;;;;;;4991638;28;20849;-48
2021/01/17 11:00:54;;;;;;;17.73;12.77;;;1.60;99.90;;;;;;4991875;28;20476;-48
2021/01/17 11:03:30;;;;;;;19.33;14.20;;;1.60;99.90;;;;;;5010286;28;20468;-48
2021/01/17 11:06:10;;;;;;;19.83;13.73;;;1.60;99.90;;;;;;5010428;28;21052;-48
2021/01/17 11:08:43;;;;;;;20.60;14.13;;;1.70;99.90;;;;;;5009128;28;21005;-48
2021/01/17 11:11:12;;;;;;;18.93;13.83;;;1.70;99.90;;;;;;5009769;28;20480;-48
2021/01/17 11:13:40;;;;;;;20.40;14.47;;;1.80;99.90;;;;;;5010101;28;20980;-49
2021/01/17 11:16:09;;;;;;;20.30;14.30;;;1.80;99.90;;;;;;5010444;28;20548;-48
2021/01/17 11:18:37;;;;;;;20.17;14.33;;;1.80;99.90;;;;;;4998422;28;20509;-48
2021/01/17 11:21:06;;;;;;;20.73;13.17;;;1.80;99.90;;;;;;5015409;28;20545;-48
2021/01/17 11:23:33;;;;;;;19.83;13.87;;;1.80;99.90;;;;;;5006824;28;20467;-49
2021/01/17 11:26:06;;;;;;;19.40;14.23;;;1.80;99.90;;;;;;4995062;28;20485;-49
2021/01/17 11:28:37;;;;;;;19.80;15.73;;;1.80;99.90;;;;;;5010407;28;20887;-48
2021/01/17 11:31:14;;;;;;;19.80;15.33;;;1.90;99.90;;;;;;5010125;28;20484;-49
2021/01/17 11:33:43;;;;;;;20.88;14.35;;;1.90;99.90;;;;;;4622501;28;10001348;-49
2021/01/17 11:36:11;;;;;;;20.67;15.70;;;1.90;99.90;;;;;;1380948;28;10001953;-49
2021/01/17 11:38:44;;;;;;;18.33;13.57;;;1.90;99.90;;;;;;5019022;28;20240;-49
2021/01/17 11:41:13;;;;;;;19.63;14.73;;;1.80;99.90;;;;;;5006557;28;20531;-49
2021/01/17 11:43:41;;;;;;;18.63;14.27;;;1.80;99.90;;;;;;5015837;28;20477;-49
2021/01/17 11:46:10;;;;;;;18.30;13.43;;;1.80;99.90;;;;;;5017040;28;20475;-48
2021/01/17 11:48:39;;;;;;;17.83;13.40;;;1.80;99.90;;;;;;5008334;28;20479;-49
2021/01/17 11:51:10;;;;;;;20.37;14.17;;;1.80;99.90;;;;;;5008899;28;20936;-48
2021/01/17 11:53:39;;;;;;;17.40;13.80;;;1.90;99.90;;;;;;5004079;28;20559;-49
2021/01/17 11:56:12;;;;;;;18.37;12.90;;;1.90;99.90;;;;;;5005967;28;20500;-49
2021/01/17 11:58:41;;;;;;;18.03;13.10;;;1.90;99.90;;;;;;5007426;28;20499;-49
2021/01/17 12:01:10;;;;;;;19.53;13.47;;;1.90;99.90;;;;;;5005298;28;20570;-49
2021/01/17 12:03:40;;;;;;;25.67;17.57;;;1.90;99.90;;;;;;5000196;28;20476;-48
2021/01/17 12:06:11;;;;;;;20.60;14.43;;;1.80;99.90;;;;;;4997186;28;20475;-49
2021/01/17 12:08:59;;;;;;;19.47;13.97;;;1.70;99.90;;;;;;5006543;28;20562;-49
2021/01/17 12:11:35;;;;;;;17.63;13.50;;;1.80;99.90;;;;;;5006938;28;20476;-49
2021/01/17 12:14:06;;;;;;;20.50;14.23;;;1.80;99.90;;;;;;5009105;28;20479;-49
2021/01/17 12:16:35;;;;;;;18.30;13.20;;;1.80;99.90;;;;;;5009448;28;20550;-49
2021/01/17 12:19:05;;;;;;;30.20;17.53;;;1.80;99.90;;;;;;5018628;28;20504;-49
2021/01/17 12:21:34;;;;;;;34.10;19.17;;;1.80;99.90;;;;;;5028801;28;20506;-49
2021/01/17 12:24:04;;;;;;;28.40;16.80;;;1.80;99.90;;;;;;5018494;28;20950;-48
2021/01/17 12:26:32;;;;;;;25.43;16.27;;;1.80;99.90;;;;;;5000671;28;20483;-49
2021/01/17 12:28:59;;;;;;;26.53;17.37;;;1.90;99.90;;;;;;4998646;28;20535;-50
2021/01/17 12:31:28;;;;;;;21.03;14.63;;;1.90;99.90;;;;;;5006454;28;20497;-49
2021/01/17 12:33:57;;;;;;;20.37;12.83;;;2.00;99.90;;;;;;5008725;28;20473;-49
2021/01/17 12:36:28;;;;;;;16.43;11.80;;;1.90;99.90;;;;;;5013612;28;20922;-48
2021/01/17 12:38:57;;;;;;;17.67;12.77;;;1.90;99.90;;;;;;5006876;28;20563;-49
2021/01/17 12:41:27;;;;;;;16.27;12.43;;;1.90;99.90;;;;;;5010369;28;21034;-50
2021/01/17 12:43:55;;;;;;;17.30;12.33;;;1.90;99.90;;;;;;5008635;28;20500;-49
2021/01/17 12:46:24;;;;;;;16.53;12.60;;;1.90;99.90;;;;;;5009561;28;20996;-48
2021/01/17 12:48:51;;;;;;;21.00;15.10;;;1.90;99.90;;;;;;5011581;28;20869;-50
2021/01/17 12:51:19;;;;;;;30.03;19.30;;;2.00;99.90;;;;;;5008897;28;20545;-49
2021/01/17 12:53:50;;;;;;;30.37;20.93;;;2.00;99.90;;;;;;4999956;28;20472;-49
2021/01/17 12:56:19;;;;;;;26.60;19.17;;;2.00;99.90;;;;;;4999471;28;20559;-49